Time;durP1;ratioP1;P1;durP2;ratioP2;P2;SDS_P1;SDS_P2;PMS_P1;PMS_P2;Temp;Humidity;BMP_temperature;BMP_pressure;BME280_temperature;BME280_humidity;BME280_pressure;Samples;Min_cycle;Max_cycle;Signal;HPM_P1;HPM_P2
2023/09/14 00:01:59;;;;;;;3.42;1.80;;;;;;;;;;4990164;28;20253;-66
2023/09/14 00:04:24;;;;;;;4.10;1.90;;;;;;;;;;4991530;28;20622;-66
2023/09/14 00:06:49;;;;;;;7.20;2.30;;;;;;;;;;4990691;28;20194;-66
2023/09/14 00:09:15;;;;;;;5.22;1.95;;;;;;;;;;4985173;28;20270;-66
2023/09/14 00:11:40;;;;;;;11.05;2.05;;;;;;;;;;4983906;28;20238;-66
2023/09/14 00:14:05;;;;;;;4.00;1.70;;;;;;;;;;4993630;28;20663;-65
2023/09/14 00:16:31;;;;;;;4.03;1.90;;;;;;;;;;4990878;28;20219;-65
2023/09/14 00:18:56;;;;;;;7.20;3.05;;;;;;;;;;4994735;28;20220;-65
2023/09/14 00:21:21;;;;;;;5.50;2.03;;;;;;;;;;4990864;28;20235;-65
2023/09/14 00:23:47;;;;;;;6.18;1.92;;;;;;;;;;4990435;28;20171;-66
2023/09/14 00:26:12;;;;;;;6.35;2.28;;;;;;;;;;4977906;28;20206;-66
2023/09/14 00:28:37;;;;;;;6.78;2.15;;;;;;;;;;4988473;28;20186;-65
2023/09/14 00:31:02;;;;;;;6.47;2.70;;;;;;;;;;4995722;28;20204;-65
2023/09/14 00:33:28;;;;;;;3.53;2.60;;;;;;;;;;4994443;28;20603;-65
2023/09/14 00:35:53;;;;;;;3.10;1.55;;;;;;;;;;4990303;28;20607;-66
2023/09/14 00:38:18;;;;;;;3.72;2.30;;;;;;;;;;4988659;28;20275;-64
2023/09/14 00:40:44;;;;;;;4.60;2.10;;;;;;;;;;4981186;28;20245;-65
2023/09/14 00:43:09;;;;;;;5.75;1.80;;;;;;;;;;4990720;28;20223;-66
2023/09/14 00:45:35;;;;;;;4.90;1.85;;;;;;;;;;4991614;28;20227;-66
2023/09/14 00:48:02;;;;;;;3.72;2.00;;;;;;;;;;4991090;28;20168;-66
2023/09/14 00:50:28;;;;;;;6.32;2.08;;;;;;;;;;4990642;28;20286;-66
2023/09/14 00:52:55;;;;;;;3.67;1.75;;;;;;;;;;4989586;28;20263;-66
2023/09/14 00:55:21;;;;;;;5.72;2.53;;;;;;;;;;4977925;28;20196;-65
2023/09/14 00:57:49;;;;;;;5.57;1.95;;;;;;;;;;4995893;28;20194;-65
2023/09/14 01:00:16;;;;;;;5.82;2.03;;;;;;;;;;4989075;28;20253;-65
2023/09/14 01:02:41;;;;;;;6.15;2.13;;;;;;;;;;4987600;28;20186;-65
2023/09/14 01:05:07;;;;;;;5.50;2.53;;;;;;;;;;4989452;28;20283;-65
2023/09/14 01:07:33;;;;;;;12.50;2.47;;;;;;;;;;4995157;28;20183;-66
2023/09/14 01:09:59;;;;;;;5.25;2.35;;;;;;;;;;4983763;28;20188;-66
2023/09/14 01:12:24;;;;;;;4.93;2.13;;;;;;;;;;4984360;28;20206;-65
2023/09/14 01:14:58;;;;;;;2.17;1.60;;;;;;;;;;4991126;28;20200;-66
2023/09/14 01:17:26;;;;;;;4.72;1.75;;;;;;;;;;4996696;28;20230;-65
2023/09/14 01:20:04;;;;;;;3.33;1.83;;;;;;;;;;4993652;28;20686;-65
2023/09/14 01:22:35;;;;;;;4.20;1.85;;;;;;;;;;4993815;28;20206;-65
2023/09/14 01:25:20;;;;;;;7.55;2.05;;;;;;;;;;4988701;28;20570;-65
2023/09/14 01:27:45;;;;;;;2.65;1.95;;;;;;;;;;4988886;28;20210;-66
2023/09/14 01:30:10;;;;;;;6.30;2.22;;;;;;;;;;4998665;28;20577;-66
2023/09/14 01:32:36;;;;;;;5.72;2.28;;;;;;;;;;4999987;28;20179;-66
2023/09/14 01:35:01;;;;;;;5.03;2.17;;;;;;;;;;4994737;28;20210;-65
2023/09/14 01:37:27;;;;;;;7.43;2.17;;;;;;;;;;4994183;28;20163;-65
2023/09/14 01:39:53;;;;;;;3.55;2.15;;;;;;;;;;4988594;28;20328;-65
2023/09/14 01:42:19;;;;;;;6.15;2.88;;;;;;;;;;4988518;28;20595;-66
2023/09/14 01:44:45;;;;;;;5.30;1.90;;;;;;;;;;4992445;28;20550;-66
2023/09/14 01:47:10;;;;;;;8.85;2.50;;;;;;;;;;4994387;28;20178;-65
2023/09/14 01:49:35;;;;;;;9.88;2.58;;;;;;;;;;4997164;28;20195;-65
2023/09/14 01:52:01;;;;;;;4.60;1.98;;;;;;;;;;4993524;28;20199;-65
2023/09/14 01:54:26;;;;;;;8.27;2.78;;;;;;;;;;4993597;28;20172;-65
2023/09/14 01:56:51;;;;;;;6.00;1.98;;;;;;;;;;4986443;28;20168;-65
2023/09/14 01:59:16;;;;;;;5.18;2.10;;;;;;;;;;4993699;28;20176;-65
2023/09/14 02:01:42;;;;;;;7.35;2.65;;;;;;;;;;5019695;23;20613;-70
2023/09/14 02:04:07;;;;;;;4.47;1.95;;;;;;;;;;5010200;28;20237;-70
2023/09/14 02:06:32;;;;;;;6.45;2.63;;;;;;;;;;5008304;28;20171;-71
2023/09/14 02:08:57;;;;;;;8.80;2.47;;;;;;;;;;5000734;28;20595;-70
2023/09/14 02:11:23;;;;;;;6.38;2.88;;;;;;;;;;4992973;28;20585;-70
2023/09/14 02:13:48;;;;;;;7.18;2.20;;;;;;;;;;4987795;28;20206;-71
2023/09/14 02:16:13;;;;;;;8.35;2.33;;;;;;;;;;4987930;28;20211;-71
2023/09/14 02:18:38;;;;;;;8.35;2.70;;;;;;;;;;4994554;28;20175;-71
2023/09/14 02:21:03;;;;;;;4.85;2.10;;;;;;;;;;4984911;28;20667;-71
2023/09/14 02:23:29;;;;;;;5.65;2.17;;;;;;;;;;4986574;28;20179;-71
2023/09/14 02:25:54;;;;;;;5.43;2.40;;;;;;;;;;4990587;28;20172;-71
2023/09/14 02:28:20;;;;;;;6.45;3.05;;;;;;;;;;4985940;28;20180;-71
2023/09/14 02:30:45;;;;;;;5.65;2.75;;;;;;;;;;4992513;28;20282;-71
2023/09/14 02:33:11;;;;;;;7.68;2.50;;;;;;;;;;4994144;28;20171;-71
2023/09/14 02:35:38;;;;;;;4.63;2.25;;;;;;;;;;4994330;28;20200;-71
2023/09/14 02:38:03;;;;;;;5.97;2.38;;;;;;;;;;4993646;28;20616;-70
2023/09/14 02:40:29;;;;;;;3.40;2.15;;;;;;;;;;4992757;28;20208;-70
2023/09/14 02:42:54;;;;;;;5.82;2.28;;;;;;;;;;4993566;28;20230;-70
2023/09/14 02:45:20;;;;;;;9.45;2.92;;;;;;;;;;4986080;28;20187;-70
2023/09/14 02:47:45;;;;;;;3.40;1.85;;;;;;;;;;4992652;28;20246;-71
2023/09/14 02:50:10;;;;;;;5.18;2.20;;;;;;;;;;4990068;28;20189;-71
2023/09/14 02:52:35;;;;;;;8.18;2.70;;;;;;;;;;4980431;28;20180;-71
2023/09/14 02:55:00;;;;;;;3.92;2.30;;;;;;;;;;4990791;28;20223;-71
2023/09/14 02:57:26;;;;;;;9.65;3.08;;;;;;;;;;4986551;28;20172;-71
2023/09/14 02:59:54;;;;;;;4.80;2.80;;;;;;;;;;4992426;28;20207;-71
2023/09/14 03:02:21;;;;;;;4.97;2.83;;;;;;;;;;4992381;28;20218;-71
2023/09/14 03:04:46;;;;;;;4.05;2.85;;;;;;;;;;4977259;28;20687;-71
2023/09/14 03:07:11;;;;;;;5.70;2.60;;;;;;;;;;4986943;28;20196;-71
2023/09/14 03:09:37;;;;;;;8.53;2.63;;;;;;;;;;4985734;28;20200;-70
2023/09/14 03:12:02;;;;;;;5.03;2.22;;;;;;;;;;4982039;28;20199;-70
2023/09/14 03:14:27;;;;;;;4.35;2.45;;;;;;;;;;4993061;28;20230;-70
2023/09/14 03:16:52;;;;;;;9.18;2.78;;;;;;;;;;4982471;28;20247;-70
2023/09/14 03:19:17;;;;;;;6.07;2.83;;;;;;;;;;4984933;28;20176;-71
2023/09/14 03:21:43;;;;;;;5.43;2.70;;;;;;;;;;4981919;28;20196;-70
2023/09/14 03:24:08;;;;;;;7.25;2.60;;;;;;;;;;4981531;28;20176;-70
2023/09/14 03:26:33;;;;;;;5.33;2.60;;;;;;;;;;4984554;28;20212;-71
2023/09/14 03:28:58;;;;;;;5.70;2.92;;;;;;;;;;4988756;28;20179;-70
2023/09/14 03:31:25;;;;;;;9.20;2.92;;;;;;;;;;4976973;28;20187;-70
2023/09/14 03:33:53;;;;;;;13.10;3.08;;;;;;;;;;4985627;28;20184;-71
2023/09/14 03:36:18;;;;;;;6.93;3.70;;;;;;;;;;4984579;28;20176;-71
2023/09/14 03:38:44;;;;;;;13.27;3.72;;;;;;;;;;4988956;28;20191;-71
2023/09/14 03:41:12;;;;;;;4.27;2.90;;;;;;;;;;4992042;28;20199;-71
2023/09/14 03:43:38;;;;;;;5.40;3.57;;;;;;;;;;4980067;28;20191;-71
2023/09/14 03:46:04;;;;;;;9.43;2.80;;;;;;;;;;4981703;28;20286;-70
2023/09/14 03:48:29;;;;;;;7.90;3.63;;;;;;;;;;4988075;28;20271;-70
2023/09/14 03:50:58;;;;;;;5.93;3.20;;;;;;;;;;4990955;28;20226;-70
2023/09/14 03:53:23;;;;;;;7.82;2.92;;;;;;;;;;4990979;28;20200;-70
2023/09/14 03:55:49;;;;;;;4.80;2.72;;;;;;;;;;4991421;28;20289;-70
2023/09/14 03:58:14;;;;;;;7.97;3.23;;;;;;;;;;4991068;28;20191;-68
2023/09/14 04:00:39;;;;;;;4.93;3.03;;;;;;;;;;4983311;28;20342;-70
2023/09/14 04:03:04;;;;;;;7.40;2.57;;;;;;;;;;4989851;28;20227;-70
2023/09/14 04:05:30;;;;;;;5.60;3.30;;;;;;;;;;4993068;28;20651;-70
2023/09/14 04:07:55;;;;;;;7.80;3.07;;;;;;;;;;4993952;28;20210;-70
2023/09/14 04:10:20;;;;;;;8.17;3.47;;;;;;;;;;4989140;28;20178;-70
2023/09/14 04:12:45;;;;;;;7.43;3.20;;;;;;;;;;4994532;28;20179;-70
2023/09/14 04:15:11;;;;;;;4.67;2.53;;;;;;;;;;4986150;28;20252;-71
2023/09/14 04:17:37;;;;;;;9.30;2.50;;;;;;;;;;4990852;28;20199;-70
2023/09/14 04:20:09;;;;;;;8.03;2.90;;;;;;;;;;4996571;28;20199;-71
2023/09/14 04:22:34;;;;;;;4.77;2.37;;;;;;;;;;4986193;28;20326;-71
2023/09/14 04:24:59;;;;;;;9.80;3.17;;;;;;;;;;4986159;28;20287;-71
2023/09/14 04:27:25;;;;;;;5.90;3.33;;;;;;;;;;4983882;28;20190;-69
2023/09/14 04:29:50;;;;;;;6.03;2.80;;;;;;;;;;4993018;28;20179;-70
2023/09/14 04:32:15;;;;;;;8.07;3.03;;;;;;;;;;4981461;28;20210;-70
2023/09/14 04:34:40;;;;;;;7.70;3.50;;;;;;;;;;4980568;28;20271;-70
2023/09/14 04:37:06;;;;;;;5.47;3.10;;;;;;;;;;4985319;28;20282;-70
2023/09/14 04:39:31;;;;;;;8.53;3.03;;;;;;;;;;4985344;28;20187;-70
2023/09/14 04:41:56;;;;;;;4.07;3.07;;;;;;;;;;4990826;28;20192;-70
2023/09/14 04:44:21;;;;;;;7.83;3.20;;;;;;;;;;4992438;28;20214;-70
2023/09/14 04:46:47;;;;;;;6.03;2.97;;;;;;;;;;4979760;28;20689;-70
2023/09/14 04:49:12;;;;;;;7.73;3.80;;;;;;;;;;4991306;28;20184;-70
2023/09/14 04:51:37;;;;;;;7.27;3.30;;;;;;;;;;4989831;28;20211;-70
2023/09/14 04:54:03;;;;;;;4.73;3.20;;;;;;;;;;4993351;28;20184;-70
2023/09/14 04:56:28;;;;;;;8.23;3.70;;;;;;;;;;4989971;28;20179;-70
2023/09/14 04:58:53;;;;;;;8.43;3.60;;;;;;;;;;4995261;28;20310;-70
2023/09/14 05:01:18;;;;;;;8.23;4.03;;;;;;;;;;4990134;28;20447;-70
2023/09/14 05:03:44;;;;;;;9.93;3.33;;;;;;;;;;4978760;28;20203;-70
2023/09/14 05:06:10;;;;;;;8.97;3.47;;;;;;;;;;4984337;28;20228;-71
2023/09/14 05:08:35;;;;;;;7.43;3.00;;;;;;;;;;4995187;28;20180;-71
2023/09/14 05:11:01;;;;;;;8.37;4.20;;;;;;;;;;4989143;28;20203;-71
2023/09/14 05:13:26;;;;;;;9.03;3.60;;;;;;;;;;4989980;28;20181;-71
2023/09/14 05:15:52;;;;;;;13.37;3.70;;;;;;;;;;4990467;28;20187;-71
2023/09/14 05:18:17;;;;;;;7.07;3.50;;;;;;;;;;4987010;28;20188;-71
2023/09/14 05:20:43;;;;;;;9.03;3.40;;;;;;;;;;4987278;28;20203;-72
2023/09/14 05:23:08;;;;;;;6.67;3.57;;;;;;;;;;4984681;28;20180;-72
2023/09/14 05:25:33;;;;;;;9.57;4.63;;;;;;;;;;4985237;28;20713;-72
2023/09/14 05:27:58;;;;;;;8.37;3.87;;;;;;;;;;4992463;28;20535;-72
2023/09/14 05:30:24;;;;;;;6.50;3.80;;;;;;;;;;4989220;28;20241;-71
2023/09/14 05:32:50;;;;;;;6.20;3.47;;;;;;;;;;4992881;28;20682;-71
2023/09/14 05:35:15;;;;;;;7.03;3.20;;;;;;;;;;4987935;28;20188;-71
2023/09/14 05:37:40;;;;;;;9.77;3.33;;;;;;;;;;4984104;28;20238;-71
2023/09/14 05:40:15;;;;;;;7.57;3.13;;;;;;;;;;4993539;28;20188;-71
2023/09/14 05:42:41;;;;;;;9.73;3.20;;;;;;;;;;4979307;28;20176;-72
2023/09/14 05:45:07;;;;;;;4.43;2.73;;;;;;;;;;4986635;28;20200;-71
2023/09/14 05:47:32;;;;;;;8.20;3.70;;;;;;;;;;4991890;28;20271;-72
2023/09/14 05:49:57;;;;;;;7.83;3.47;;;;;;;;;;4984540;28;20187;-71
2023/09/14 05:52:23;;;;;;;7.03;3.20;;;;;;;;;;4989053;28;20207;-71
2023/09/14 05:54:48;;;;;;;8.50;3.43;;;;;;;;;;4985835;28;20197;-71
2023/09/14 05:57:14;;;;;;;5.43;3.17;;;;;;;;;;4988062;28;20191;-71
2023/09/14 05:59:39;;;;;;;6.70;3.60;;;;;;;;;;4989007;28;20176;-70
2023/09/14 06:02:05;;;;;;;9.20;4.33;;;;;;;;;;4987310;28;20302;-70
2023/09/14 06:04:30;;;;;;;8.35;3.92;;;;;;;;;;4989621;28;20330;-71
2023/09/14 06:06:56;;;;;;;23.70;4.43;;;;;;;;;;4988216;28;20203;-71
2023/09/14 06:09:21;;;;;;;10.52;3.88;;;;;;;;;;4989185;28;20211;-71
2023/09/14 06:11:46;;;;;;;8.50;4.30;;;;;;;;;;4979678;28;20203;-71
2023/09/14 06:14:11;;;;;;;9.00;4.15;;;;;;;;;;4987645;28;20250;-71
2023/09/14 06:16:37;;;;;;;11.55;4.57;;;;;;;;;;4992739;28;20234;-71
2023/09/14 06:19:02;;;;;;;15.18;4.60;;;;;;;;;;4992140;28;20270;-71
2023/09/14 06:21:27;;;;;;;10.68;4.80;;;;;;;;;;4978749;28;20200;-71
2023/09/14 06:23:52;;;;;;;7.43;4.05;;;;;;;;;;4985221;28;20239;-71
2023/09/14 06:26:18;;;;;;;10.48;4.53;;;;;;;;;;4988012;28;20334;-71
2023/09/14 06:28:43;;;;;;;17.10;5.25;;;;;;;;;;4992964;28;20242;-71
2023/09/14 06:31:08;;;;;;;10.07;4.88;;;;;;;;;;4989692;28;20203;-71
2023/09/14 06:33:33;;;;;;;6.63;4.18;;;;;;;;;;4987441;28;20276;-72
2023/09/14 06:35:59;;;;;;;15.07;4.85;;;;;;;;;;4989324;28;20262;-71
2023/09/14 06:38:24;;;;;;;9.23;3.63;;;;;;;;;;4986882;28;20237;-71
2023/09/14 06:40:50;;;;;;;9.82;3.72;;;;;;;;;;4982245;28;20203;-71
2023/09/14 06:43:15;;;;;;;7.80;4.28;;;;;;;;;;4988870;28;20246;-71
2023/09/14 06:45:40;;;;;;;7.35;3.78;;;;;;;;;;4990223;28;20619;-70
2023/09/14 06:48:05;;;;;;;10.60;4.22;;;;;;;;;;4988058;28;20671;-71
2023/09/14 06:50:31;;;;;;;7.88;4.15;;;;;;;;;;4979118;28;20207;-71
2023/09/14 06:52:56;;;;;;;12.43;4.22;;;;;;;;;;4990233;28;20190;-71
2023/09/14 06:55:21;;;;;;;14.73;5.15;;;;;;;;;;4987640;28;20214;-71
2023/09/14 06:57:46;;;;;;;12.50;4.10;;;;;;;;;;4988743;28;20219;-70
2023/09/14 07:00:16;;;;;;;13.98;3.58;;;;;;;;;;4988098;28;20647;-70
2023/09/14 07:02:42;;;;;;;9.20;3.60;;;;;;;;;;4988009;28;20222;-70
2023/09/14 07:05:10;;;;;;;8.27;3.60;;;;;;;;;;4987022;28;20223;-70
2023/09/14 07:07:39;;;;;;;9.35;3.58;;;;;;;;;;4993346;28;20207;-70
2023/09/14 07:10:05;;;;;;;4.43;3.40;;;;;;;;;;4987263;28;20561;-70
2023/09/14 07:12:31;;;;;;;5.65;3.55;;;;;;;;;;4986924;28;20931;-70
2023/09/14 07:14:56;;;;;;;9.32;3.42;;;;;;;;;;4990632;28;20270;-71
2023/09/14 07:17:21;;;;;;;6.47;3.92;;;;;;;;;;4993129;28;20246;-70
2023/09/14 07:19:46;;;;;;;6.72;3.70;;;;;;;;;;4993294;28;20176;-70
2023/09/14 07:22:11;;;;;;;6.82;3.10;;;;;;;;;;4987958;28;20322;-71
2023/09/14 07:24:37;;;;;;;7.22;3.20;;;;;;;;;;4986122;28;20191;-70
2023/09/14 07:27:02;;;;;;;6.38;3.25;;;;;;;;;;4985465;28;20558;-70
2023/09/14 07:29:28;;;;;;;9.18;3.30;;;;;;;;;;4988801;28;20187;-70
2023/09/14 07:31:54;;;;;;;9.05;3.20;;;;;;;;;;4989172;28;20195;-70
2023/09/14 07:34:19;;;;;;;9.77;3.45;;;;;;;;;;4988574;28;20183;-70
2023/09/14 07:36:45;;;;;;;12.18;4.38;;;;;;;;;;4986723;28;20187;-71
2023/09/14 07:39:10;;;;;;;7.35;3.40;;;;;;;;;;4988680;28;20189;-70
2023/09/14 07:41:36;;;;;;;5.60;3.53;;;;;;;;;;4986588;28;20216;-72
2023/09/14 07:44:01;;;;;;;6.97;3.58;;;;;;;;;;4987977;28;20574;-73
2023/09/14 07:46:26;;;;;;;5.78;3.10;;;;;;;;;;4986218;28;20203;-73
2023/09/14 07:48:51;;;;;;;11.27;3.97;;;;;;;;;;4984954;28;20184;-72
2023/09/14 07:51:17;;;;;;;6.13;3.13;;;;;;;;;;4977188;28;20191;-72
2023/09/14 07:53:42;;;;;;;6.90;3.65;;;;;;;;;;4983235;28;20184;-72
2023/09/14 07:56:07;;;;;;;10.65;3.97;;;;;;;;;;4989660;28;20184;-72
2023/09/14 07:58:32;;;;;;;6.40;3.70;;;;;;;;;;4985862;28;20184;-72
2023/09/14 08:00:58;;;;;;;11.15;4.20;;;;;;;;;;5032570;23;20938;-70
2023/09/14 08:03:25;;;;;;;7.32;3.72;;;;;;;;;;5004245;28;20187;-69
2023/09/14 08:05:51;;;;;;;11.88;4.43;;;;;;;;;;5004954;28;20207;-69
2023/09/14 08:08:16;;;;;;;7.82;4.25;;;;;;;;;;5004950;28;20187;-69
2023/09/14 08:10:47;;;;;;;8.55;3.67;;;;;;;;;;5001962;28;20179;-69
2023/09/14 08:13:13;;;;;;;8.68;4.38;;;;;;;;;;4988191;28;20171;-69
2023/09/14 08:15:39;;;;;;;8.95;4.45;;;;;;;;;;4980956;28;20191;-70
2023/09/14 08:18:04;;;;;;;11.45;4.82;;;;;;;;;;4986784;28;20183;-70
2023/09/14 08:20:30;;;;;;;9.07;4.10;;;;;;;;;;4986039;28;20189;-68
2023/09/14 08:22:55;;;;;;;10.32;4.65;;;;;;;;;;4991694;28;20180;-69
2023/09/14 08:25:20;;;;;;;7.18;4.03;;;;;;;;;;4990903;28;20225;-68
2023/09/14 08:27:45;;;;;;;13.52;4.68;;;;;;;;;;4990464;28;20559;-69
2023/09/14 08:30:11;;;;;;;8.55;4.35;;;;;;;;;;4994140;28;20549;-69
2023/09/14 08:32:36;;;;;;;8.82;5.00;;;;;;;;;;4989259;28;20246;-69
2023/09/14 08:35:21;;;;;;;12.70;4.78;;;;;;;;;;4991339;28;20627;-70
2023/09/14 08:37:46;;;;;;;8.65;3.90;;;;;;;;;;4993532;28;20586;-68
2023/09/14 08:40:14;;;;;;;6.65;4.18;;;;;;;;;;4987305;28;20175;-69
2023/09/14 08:42:47;;;;;;;10.52;4.57;;;;;;;;;;4992336;28;20219;-69
2023/09/14 08:45:12;;;;;;;11.68;5.10;;;;;;;;;;4989818;28;20199;-69
2023/09/14 08:47:39;;;;;;;9.57;4.88;;;;;;;;;;4994953;28;20295;-69
2023/09/14 08:50:05;;;;;;;12.57;5.03;;;;;;;;;;4993252;28;20218;-69
2023/09/14 08:52:30;;;;;;;10.27;4.82;;;;;;;;;;4988018;28;20234;-69
2023/09/14 08:54:57;;;;;;;10.15;4.93;;;;;;;;;;4993900;28;20239;-69
2023/09/14 08:57:22;;;;;;;10.50;4.32;;;;;;;;;;4994194;28;20175;-69
2023/09/14 08:59:48;;;;;;;7.50;4.15;;;;;;;;;;4992141;28;20182;-68
2023/09/14 09:02:13;;;;;;;9.10;3.92;;;;;;;;;;4987035;28;20226;-70
2023/09/14 09:04:39;;;;;;;8.50;4.57;;;;;;;;;;4992476;28;20190;-69
2023/09/14 09:07:05;;;;;;;4.18;3.63;;;;;;;;;;4988924;28;20651;-69
2023/09/14 09:09:30;;;;;;;7.18;4.03;;;;;;;;;;4993591;28;20168;-69
2023/09/14 09:11:56;;;;;;;5.70;3.85;;;;;;;;;;4995899;28;20200;-69
2023/09/14 09:14:23;;;;;;;7.90;4.38;;;;;;;;;;4991753;28;20179;-68
2023/09/14 09:16:48;;;;;;;8.18;4.00;;;;;;;;;;4989571;28;20252;-69
2023/09/14 09:19:15;;;;;;;7.13;4.35;;;;;;;;;;4993736;28;20187;-68
2023/09/14 09:21:41;;;;;;;6.35;4.10;;;;;;;;;;4996502;28;20290;-69
2023/09/14 09:24:07;;;;;;;8.18;3.83;;;;;;;;;;4994675;28;20306;-69
2023/09/14 09:26:37;;;;;;;9.50;4.55;;;;;;;;;;4993299;28;20244;-69
2023/09/14 09:29:15;;;;;;;10.40;5.00;;;;;;;;;;4994486;28;20196;-70
2023/09/14 09:31:41;;;;;;;8.38;4.38;;;;;;;;;;4986808;28;20210;-69
2023/09/14 09:34:08;;;;;;;9.32;4.43;;;;;;;;;;4988026;28;20180;-69
2023/09/14 09:36:34;;;;;;;7.75;4.35;;;;;;;;;;4984632;28;20211;-69
2023/09/14 09:39:03;;;;;;;6.85;3.47;;;;;;;;;;4987918;28;20317;-70
2023/09/14 09:41:30;;;;;;;5.70;3.15;;;;;;;;;;4984956;28;20690;-70
2023/09/14 09:43:55;;;;;;;3.83;2.83;;;;;;;;;;4989982;28;20764;-69
2023/09/14 09:46:21;;;;;;;6.40;3.05;;;;;;;;;;4988909;28;20288;-70
2023/09/14 09:48:46;;;;;;;6.18;4.00;;;;;;;;;;4985682;28;20233;-69
2023/09/14 09:51:12;;;;;;;6.65;3.97;;;;;;;;;;4989810;28;20242;-68
2023/09/14 09:53:37;;;;;;;8.40;3.72;;;;;;;;;;4989697;28;20184;-69
2023/09/14 09:56:03;;;;;;;5.53;3.58;;;;;;;;;;4985484;28;20191;-69
2023/09/14 09:58:34;;;;;;;5.40;3.78;;;;;;;;;;4989371;28;20519;-69
2023/09/14 10:01:00;;;;;;;6.38;3.50;;;;;;;;;;4990438;28;20211;-70
2023/09/14 10:03:25;;;;;;;7.63;3.35;;;;;;;;;;4989457;28;20333;-70
2023/09/14 10:05:50;;;;;;;5.90;2.72;;;;;;;;;;4988841;28;20308;-68
2023/09/14 10:08:17;;;;;;;7.93;2.85;;;;;;;;;;4986652;28;20614;-69
2023/09/14 10:10:50;;;;;;;5.50;2.83;;;;;;;;;;4984029;28;20183;-70
2023/09/14 10:13:16;;;;;;;9.43;3.08;;;;;;;;;;4992879;28;20187;-69
2023/09/14 10:15:41;;;;;;;6.30;3.30;;;;;;;;;;4987401;28;20977;-69
2023/09/14 10:18:07;;;;;;;7.00;3.28;;;;;;;;;;4985237;28;20202;-69
2023/09/14 10:20:34;;;;;;;3.65;2.25;;;;;;;;;;4987290;28;20194;-69
2023/09/14 10:22:59;;;;;;;5.55;3.10;;;;;;;;;;4990256;28;20974;-69
2023/09/14 10:25:25;;;;;;;4.57;2.70;;;;;;;;;;4986772;28;20207;-71
2023/09/14 10:27:50;;;;;;;7.78;3.63;;;;;;;;;;4985074;28;20228;-69
2023/09/14 10:30:19;;;;;;;5.03;2.97;;;;;;;;;;4991923;28;20171;-70
2023/09/14 10:32:57;;;;;;;5.40;2.75;;;;;;;;;;4984053;28;20200;-69
2023/09/14 10:35:23;;;;;;;4.72;2.55;;;;;;;;;;4987047;28;20616;-70
2023/09/14 10:37:49;;;;;;;5.57;2.60;;;;;;;;;;4979661;28;20191;-70
2023/09/14 10:40:14;;;;;;;3.65;2.83;;;;;;;;;;4989191;28;20183;-69
2023/09/14 10:42:40;;;;;;;5.85;2.50;;;;;;;;;;4987876;28;20203;-69
2023/09/14 10:45:06;;;;;;;9.65;2.25;;;;;;;;;;4983121;28;20282;-68
2023/09/14 10:47:36;;;;;;;6.32;2.70;;;;;;;;;;4990385;28;20180;-69
2023/09/14 10:50:03;;;;;;;4.53;2.60;;;;;;;;;;4985984;28;20585;-69
2023/09/14 10:52:28;;;;;;;6.68;2.72;;;;;;;;;;4987940;28;20203;-69
2023/09/14 10:54:54;;;;;;;4.20;2.40;;;;;;;;;;4987525;28;20198;-68
2023/09/14 10:57:24;;;;;;;4.65;2.83;;;;;;;;;;4985204;28;20602;-68
2023/09/14 10:59:53;;;;;;;4.70;2.10;;;;;;;;;;4986856;28;20651;-68
2023/09/14 11:02:36;;;;;;;3.95;2.10;;;;;;;;;;4986525;28;20211;-69
2023/09/14 11:05:17;;;;;;;2.85;2.10;;;;;;;;;;4983280;28;20263;-69
2023/09/14 11:07:47;;;;;;;4.65;2.60;;;;;;;;;;4980134;28;20190;-69
2023/09/14 11:10:20;;;;;;;4.00;2.30;;;;;;;;;;5002668;28;20172;-69
2023/09/14 11:12:46;;;;;;;5.65;2.72;;;;;;;;;;4988177;28;20757;-69
2023/09/14 11:15:11;;;;;;;8.27;2.70;;;;;;;;;;4983407;28;20192;-70
2023/09/14 11:17:40;;;;;;;4.05;2.60;;;;;;;;;;4986084;28;20187;-68
2023/09/14 11:20:26;;;;;;;5.35;2.60;;;;;;;;;;4986146;28;20213;-69
2023/09/14 11:22:52;;;;;;;10.02;3.08;;;;;;;;;;4986172;28;20217;-67
2023/09/14 11:25:29;;;;;;;6.45;3.08;;;;;;;;;;4987752;28;20203;-69
2023/09/14 11:27:55;;;;;;;8.25;3.15;;;;;;;;;;4987185;28;20183;-69
2023/09/14 11:30:21;;;;;;;6.90;2.20;;;;;;;;;;4985973;28;20195;-68
2023/09/14 11:32:47;;;;;;;3.72;2.40;;;;;;;;;;4986326;28;20365;-69
2023/09/14 11:35:12;;;;;;;4.15;2.10;;;;;;;;;;4984566;28;20431;-69
2023/09/14 11:37:42;;;;;;;3.33;2.20;;;;;;;;;;4987931;28;20236;-69
2023/09/14 11:40:15;;;;;;;3.42;2.15;;;;;;;;;;4986829;28;20203;-69
2023/09/14 11:42:59;;;;;;;5.93;2.30;;;;;;;;;;4983537;28;20200;-69
2023/09/14 11:45:24;;;;;;;3.42;1.60;;;;;;;;;;4985541;28;20651;-69
2023/09/14 11:47:50;;;;;;;3.08;2.00;;;;;;;;;;4979568;28;20179;-68
2023/09/14 11:50:17;;;;;;;3.90;2.20;;;;;;;;;;4980893;28;20192;-69
2023/09/14 11:52:44;;;;;;;3.63;2.10;;;;;;;;;;4985653;28;20224;-69
2023/09/14 11:55:14;;;;;;;6.38;2.35;;;;;;;;;;4987101;28;20432;-69
2023/09/14 11:57:39;;;;;;;6.43;2.10;;;;;;;;;;4981465;28;20580;-69
2023/09/14 12:00:05;;;;;;;5.13;2.07;;;;;;;;;;4989061;28;20187;-69
2023/09/14 12:02:31;;;;;;;3.55;2.40;;;;;;;;;;4987690;28;20530;-69
2023/09/14 12:04:57;;;;;;;3.47;2.30;;;;;;;;;;4987887;28;20671;-69
2023/09/14 12:07:22;;;;;;;3.88;2.45;;;;;;;;;;4986150;28;20713;-69
2023/09/14 12:09:47;;;;;;;3.10;2.08;;;;;;;;;;4986912;28;20234;-69
2023/09/14 12:12:24;;;;;;;3.33;1.95;;;;;;;;;;4985801;28;20203;-70
2023/09/14 12:14:50;;;;;;;4.03;2.08;;;;;;;;;;4984792;28;20263;-68
2023/09/14 12:17:19;;;;;;;4.55;1.98;;;;;;;;;;4984530;28;20266;-69
2023/09/14 12:20:04;;;;;;;3.53;2.20;;;;;;;;;;4987258;28;20183;-69
2023/09/14 12:22:31;;;;;;;3.75;1.90;;;;;;;;;;4984920;28;20199;-68
2023/09/14 12:24:56;;;;;;;4.00;2.25;;;;;;;;;;4989025;28;20608;-68
2023/09/14 12:27:22;;;;;;;3.65;2.03;;;;;;;;;;4989121;28;20190;-68
2023/09/14 12:29:48;;;;;;;4.10;2.72;;;;;;;;;;4985626;28;20171;-69
2023/09/14 12:32:14;;;;;;;4.38;2.50;;;;;;;;;;4983544;28;20607;-69
2023/09/14 12:34:40;;;;;;;3.80;2.47;;;;;;;;;;4985888;28;20186;-69
2023/09/14 12:37:06;;;;;;;4.30;2.22;;;;;;;;;;4985384;28;20223;-69
2023/09/14 12:39:32;;;;;;;5.85;2.78;;;;;;;;;;4990757;28;20647;-69
2023/09/14 12:42:00;;;;;;;4.63;2.67;;;;;;;;;;4978514;28;20202;-69
2023/09/14 12:44:25;;;;;;;4.28;3.03;;;;;;;;;;4982695;28;20168;-68
2023/09/14 12:46:51;;;;;;;4.70;2.60;;;;;;;;;;4989124;28;20202;-69
2023/09/14 12:49:16;;;;;;;4.25;2.00;;;;;;;;;;4982056;28;20426;-69
2023/09/14 12:51:45;;;;;;;3.97;2.33;;;;;;;;;;4988075;28;20286;-69
2023/09/14 12:54:10;;;;;;;6.22;2.50;;;;;;;;;;4984450;28;20195;-69
2023/09/14 12:56:36;;;;;;;5.17;2.63;;;;;;;;;;4988675;28;20208;-70
2023/09/14 12:59:04;;;;;;;3.90;2.30;;;;;;;;;;4976977;28;20435;-69
2023/09/14 13:01:29;;;;;;;6.13;2.55;;;;;;;;;;4984964;28;20478;-69
2023/09/14 13:03:57;;;;;;;2.97;2.03;;;;;;;;;;4985428;28;20196;-68
2023/09/14 13:06:22;;;;;;;5.82;2.47;;;;;;;;;;4984004;28;20191;-68
2023/09/14 13:08:47;;;;;;;4.45;2.70;;;;;;;;;;4991191;28;20192;-68
2023/09/14 13:11:20;;;;;;;7.20;2.63;;;;;;;;;;4991196;28;20270;-68
2023/09/14 13:13:46;;;;;;;4.18;2.50;;;;;;;;;;4988261;28;20188;-69
2023/09/14 13:16:14;;;;;;;3.80;2.17;;;;;;;;;;4984840;28;20195;-70
2023/09/14 13:18:39;;;;;;;5.05;2.72;;;;;;;;;;4991341;28;20219;-69
2023/09/14 13:21:08;;;;;;;5.20;3.00;;;;;;;;;;4988025;28;20219;-70
2023/09/14 13:23:33;;;;;;;4.85;2.15;;;;;;;;;;4994351;28;20417;-69
2023/09/14 13:25:59;;;;;;;5.28;2.38;;;;;;;;;;4987085;28;20302;-69
2023/09/14 13:28:24;;;;;;;5.03;2.10;;;;;;;;;;4985034;28;20195;-69
2023/09/14 13:30:50;;;;;;;4.78;2.22;;;;;;;;;;4991027;28;20258;-69
2023/09/14 13:33:16;;;;;;;3.83;2.35;;;;;;;;;;4985133;28;20746;-69
2023/09/14 13:35:42;;;;;;;4.97;2.45;;;;;;;;;;4986034;28;20253;-69
2023/09/14 13:38:08;;;;;;;5.90;3.05;;;;;;;;;;4981968;28;20604;-68
2023/09/14 13:40:33;;;;;;;5.75;2.45;;;;;;;;;;4984882;28;20649;-69
2023/09/14 13:42:59;;;;;;;3.03;2.33;;;;;;;;;;4986683;28;20184;-70
2023/09/14 13:45:25;;;;;;;4.53;2.35;;;;;;;;;;4982500;28;20433;-69
2023/09/14 13:47:51;;;;;;;4.53;2.75;;;;;;;;;;4986350;28;20172;-69
2023/09/14 13:50:17;;;;;;;3.50;2.20;;;;;;;;;;4987671;28;20266;-69
2023/09/14 13:52:43;;;;;;;4.45;2.58;;;;;;;;;;4984133;28;20282;-69
2023/09/14 13:55:09;;;;;;;5.90;2.67;;;;;;;;;;4985512;28;20239;-69
2023/09/14 13:57:35;;;;;;;5.00;2.80;;;;;;;;;;4984451;28;20709;-69
2023/09/14 14:00:02;;;;;;;5.57;2.88;;;;;;;;;;4988066;28;20182;-68
2023/09/14 14:02:27;;;;;;;4.57;2.25;;;;;;;;;;5007324;23;20269;-73
2023/09/14 14:04:52;;;;;;;3.38;2.38;;;;;;;;;;5011414;28;20530;-73
2023/09/14 14:07:18;;;;;;;6.72;3.25;;;;;;;;;;5010001;28;20187;-73
2023/09/14 14:09:45;;;;;;;4.75;2.22;;;;;;;;;;5011371;28;20214;-72
2023/09/14 14:12:10;;;;;;;5.85;2.47;;;;;;;;;;5008224;28;20248;-72
2023/09/14 14:14:35;;;;;;;10.18;2.95;;;;;;;;;;5024799;28;20320;-72
2023/09/14 14:17:01;;;;;;;4.78;2.92;;;;;;;;;;5003836;28;20689;-72
2023/09/14 14:19:26;;;;;;;4.18;2.67;;;;;;;;;;5029247;28;20183;-72
2023/09/14 14:21:52;;;;;;;3.83;2.42;;;;;;;;;;5007495;28;20207;-72
2023/09/14 14:24:17;;;;;;;5.07;2.55;;;;;;;;;;5012029;28;20167;-72
2023/09/14 14:26:45;;;;;;;6.57;2.85;;;;;;;;;;5014236;28;20242;-73
2023/09/14 14:29:10;;;;;;;7.63;2.85;;;;;;;;;;5007813;28;20237;-72
2023/09/14 14:31:36;;;;;;;5.32;2.55;;;;;;;;;;5010410;28;20238;-72
2023/09/14 14:34:02;;;;;;;4.65;2.40;;;;;;;;;;5010478;28;20709;-72
2023/09/14 14:36:29;;;;;;;2.95;2.42;;;;;;;;;;5010067;28;20269;-72